createdAt,value
2022-12-11T00:00:49.276Z,81.07
2022-12-11T00:11:13.337Z,80.65
2022-12-11T00:21:15.814Z,80.02
2022-12-11T00:31:19.270Z,79.89
2022-12-11T00:41:21.894Z,79.88
2022-12-11T00:51:24.128Z,79.82
2022-12-11T01:01:26.512Z,79.89
2022-12-11T01:11:28.715Z,80.44
2022-12-11T01:21:30.975Z,80.35
2022-12-11T01:31:34.125Z,80.62
2022-12-11T01:41:36.391Z,80.47
2022-12-11T01:52:12.762Z,80.86
2022-12-11T02:02:24.634Z,80.97
2022-12-11T02:12:36.460Z,80.52
2022-12-11T02:22:53.866Z,80.20
2022-12-11T02:32:59.094Z,79.85
2022-12-11T02:43:04.836Z,79.49
2022-12-11T02:53:07.903Z,80.50
2022-12-11T03:03:10.131Z,80.57
2022-12-11T03:13:16.496Z,80.49
2022-12-11T03:23:28.257Z,80.50
2022-12-11T03:33:37.284Z,80.28
2022-12-11T03:43:41.130Z,80.22
2022-12-11T03:53:44.143Z,80.43
2022-12-11T04:03:46.351Z,80.60
2022-12-11T04:14:08.513Z,80.81
2022-12-11T04:24:16.713Z,81.14
2022-12-11T04:34:18.953Z,80.75
2022-12-11T04:44:21.135Z,80.67
2022-12-11T04:54:23.339Z,80.40
2022-12-11T05:04:26.278Z,80.84
2022-12-11T05:14:32.006Z,80.86
2022-12-11T05:24:34.211Z,80.05
2022-12-11T05:34:36.431Z,79.29
2022-12-11T05:44:38.616Z,79.10
2022-12-11T05:54:41.058Z,78.95
2022-12-11T06:04:43.213Z,79.18
2022-12-11T06:14:45.395Z,78.65
2022-12-11T06:24:48.168Z,78.04
2022-12-11T06:34:50.383Z,78.31
2022-12-11T06:44:52.661Z,77.99
2022-12-11T06:54:55.367Z,78.03
2022-12-11T07:04:57.691Z,77.91
2022-12-11T07:14:59.862Z,78.17
2022-12-11T07:25:02.120Z,77.91
2022-12-11T07:35:04.853Z,78.35
2022-12-11T07:45:07.387Z,78.24
2022-12-11T07:55:10.074Z,78.20
2022-12-11T08:05:13.370Z,78.37
2022-12-11T08:15:15.845Z,77.78
2022-12-11T08:25:18.065Z,76.82
2022-12-11T08:35:20.552Z,77.23
2022-12-11T08:45:22.775Z,77.02
2022-12-11T08:55:25.009Z,76.49
2022-12-11T09:05:27.248Z,76.70
2022-12-11T09:15:29.745Z,75.49
2022-12-11T09:25:31.954Z,72.82
2022-12-11T09:35:34.156Z,74.33
2022-12-11T09:45:36.759Z,73.02
2022-12-11T09:55:57.061Z,72.04
2022-12-11T10:06:11.135Z,71.61
2022-12-11T10:16:25.736Z,70.06
2022-12-11T10:26:29.330Z,70.47
2022-12-11T10:36:39.615Z,69.74
2022-12-11T10:46:42.016Z,70.59
2022-12-11T10:56:48.429Z,69.78
2022-12-11T11:07:02.422Z,69.26
2022-12-11T11:17:04.641Z,67.87
2022-12-11T11:27:23.965Z,66.65
2022-12-11T11:37:32.393Z,66.74
2022-12-11T11:47:41.598Z,67.90
2022-12-11T11:57:49.939Z,67.43
2022-12-11T12:08:18.914Z,66.98
2022-12-11T12:18:39.356Z,67.00
2022-12-11T12:29:26.206Z,67.76
2022-12-11T12:39:54.284Z,68.74
2022-12-11T12:49:58.988Z,68.14
2022-12-11T13:00:01.264Z,69.00
2022-12-11T13:10:23.061Z,69.68
2022-12-11T13:20:28.390Z,70.88
2022-12-11T13:30:30.631Z,70.60
2022-12-11T13:40:40.257Z,70.81
2022-12-11T13:50:43.999Z,70.96
2022-12-11T14:01:04.261Z,71.75
2022-12-11T14:11:06.688Z,72.44
2022-12-11T14:21:23.102Z,72.64
2022-12-11T14:31:43.028Z,72.35
2022-12-11T14:41:52.893Z,72.55
2022-12-11T14:51:57.917Z,72.23
2022-12-11T15:02:21.849Z,72.81
2022-12-11T15:12:24.513Z,72.63
2022-12-11T15:22:31.598Z,72.49
2022-12-11T15:32:33.949Z,72.83
2022-12-11T15:42:39.973Z,72.49
2022-12-11T15:52:42.979Z,72.63
2022-12-11T16:02:46.036Z,73.15
2022-12-11T16:12:48.389Z,72.72
2022-12-11T16:22:50.600Z,72.71
2022-12-11T16:32:53.002Z,73.33
2022-12-11T16:42:55.245Z,73.58
2022-12-11T16:52:57.424Z,73.41
2022-12-11T17:02:59.725Z,74.21
2022-12-11T17:13:01.985Z,74.17
2022-12-11T17:23:04.310Z,73.69
2022-12-11T17:33:06.547Z,73.75
2022-12-11T17:43:10.385Z,74.09
2022-12-11T17:53:14.937Z,73.68
2022-12-11T18:03:17.563Z,73.56
2022-12-11T18:13:20.718Z,73.45
2022-12-11T18:23:23.777Z,73.66
2022-12-11T18:33:26.035Z,74.83
2022-12-11T18:43:28.296Z,74.65
2022-12-11T18:53:30.527Z,74.37
2022-12-11T19:03:32.792Z,74.33
2022-12-11T19:13:35.419Z,74.25
2022-12-11T19:23:37.990Z,74.64
2022-12-11T19:33:41.653Z,74.18
2022-12-11T19:43:44.330Z,73.18
2022-12-11T19:53:47.051Z,73.28
2022-12-11T20:03:49.909Z,73.48
2022-12-11T20:13:52.283Z,72.70
2022-12-11T20:23:54.546Z,73.26
2022-12-11T20:33:57.220Z,73.13
2022-12-11T20:43:59.606Z,73.16
2022-12-11T20:54:01.772Z,72.85
2022-12-11T21:04:04.026Z,73.30
2022-12-11T21:14:06.420Z,73.99
2022-12-11T21:24:15.123Z,73.87
2022-12-11T21:40:12.205Z,73.72
2022-12-11T21:50:14.447Z,73.67
2022-12-11T22:00:17.226Z,73.53
2022-12-11T22:10:19.486Z,73.82
2022-12-11T22:20:21.671Z,73.77
2022-12-11T22:30:23.919Z,74.01
2022-12-11T22:40:26.933Z,74.20
2022-12-11T22:50:29.093Z,73.69
2022-12-11T23:00:31.305Z,74.42
2022-12-11T23:10:33.500Z,74.75
2022-12-11T23:20:35.808Z,74.60
2022-12-11T23:30:38.219Z,75.43
2022-12-11T23:40:40.441Z,75.25
2022-12-11T23:50:43.456Z,75.05
